LiveATC.Net - Listen to live air traffic control over the Internet!


ICAO: MMMY  IATA: MTY   Airport: General Mariano Escobedo International Airport
City: Monterrey
Country: Mexico   Continent: North America
MMMY METAR Weather: MMMY 171144Z 07007KT 6SM SKC 18/17 A2964 RMK SLP/// 5//// 9//
MMMY Flight Activity (FlightAware)

MMMY Tower/Approach
Feed Status: UP   Listeners: 0
Listen in your browser - HTML5 player (in browser, HTML5)
Click here to listen with your own player (launches your MP3 player)
MMMY Tower/Approach Audio Archives
FacilityFrequency
Monterrey Approach/Departure119.750
Monterrey Tower118.100

NOTICE

Unauthorized use prohibited. See LiveATC.net Terms of Service


Find LiveATC Audio Streams


Airport/ARTCC Code

Frequency Search
(e.g., 124.400, 128.75)
Site-wide search
 


Browse LiveATC Feeds
Top 50 LiveATC Feeds
LiveATC Feed Map
Bad Weather Areas

LiveATC FAQ
Offer LiveATC feed
Contact LiveATC.net
Press Inquiries

LiveATC on iPhone
LiveATC on Android

Windows Phone
Windows 8/10

LiveATC Mobile
(Mobile browser)

ATC Audio Archives
Interesting Recordings

LiveATC Forums


Home Page
About LiveATC.net
Make a Donation
Terms of Use
Privacy Policy

Canadian Air Freqs

AIRMETs/SIGMETs

FAA Airport Status
Nat'l Airspace Status
Arrival Demand Charts


Server Software By:
Icecast.org
Liquidsoap